Time;durP1;ratioP1;P1;durP2;ratioP2;P2;SDS_P1;SDS_P2;PMS_P1;PMS_P2;Temp;Humidity;BMP_temperature;BMP_pressure;BME280_temperature;BME280_humidity;BME280_pressure;Samples;Min_cycle;Max_cycle;Signal;HPM_P1;HPM_P2
2023/08/08 00:01:14;;;;;;;1.27;0.80;;;;;;;23.34;100.00;100169.13;5074184;28;20030;-75
2023/08/08 00:03:40;;;;;;;1.00;0.80;;;;;;;22.96;100.00;100161.66;5074399;28;20024;-75
2023/08/08 00:06:05;;;;;;;4.60;0.93;;;;;;;23.09;100.00;100209.09;5074705;28;20031;-75
2023/08/08 00:08:30;;;;;;;1.55;1.00;;;;;;;23.14;100.00;100212.16;5074469;28;20029;-74
2023/08/08 00:10:56;;;;;;;1.40;1.10;;;;;;;23.19;100.00;100178.91;5074752;28;20033;-76
2023/08/08 00:13:22;;;;;;;3.10;1.27;;;;;;;22.88;100.00;100144.09;5074556;28;20063;-76
2023/08/08 00:15:47;;;;;;;2.00;1.00;;;;;;;23.04;100.00;100122.97;5057094;28;20066;-76
2023/08/08 00:18:12;;;;;;;1.63;1.20;;;;;;;22.85;100.00;100096.81;5075290;28;20032;-75
2023/08/08 00:20:38;;;;;;;2.08;1.08;;;;;;;23.02;100.00;100085.97;5073568;28;20029;-74
2023/08/08 00:23:03;;;;;;;2.55;1.05;;;;;;;22.47;100.00;100044.44;5074961;28;20419;-75
2023/08/08 00:25:29;;;;;;;1.70;1.20;;;;;;;22.89;100.00;100069.72;5056785;28;20025;-76
2023/08/08 00:27:54;;;;;;;1.85;1.10;;;;;;;22.50;100.00;100002.75;5074569;28;20102;-75
2023/08/08 00:30:20;;;;;;;4.13;1.30;;;;;;;22.69;100.00;100060.03;5074225;28;20419;-76
2023/08/08 00:32:45;;;;;;;2.20;1.25;;;;;;;21.80;100.00;100014.94;5073971;28;20037;-75
2023/08/08 00:35:11;;;;;;;3.67;1.30;;;;;;;22.40;100.00;100158.91;5074450;28;20028;-75
2023/08/08 00:37:36;;;;;;;5.28;1.20;;;;;;;22.01;100.00;100104.84;5074206;28;20109;-76
2023/08/08 00:40:02;;;;;;;3.70;1.38;;;;;;;22.33;100.00;100186.25;5074108;28;20036;-75
2023/08/08 00:42:27;;;;;;;1.20;1.10;;;;;;;22.32;100.00;100202.72;5073880;28;20093;-75
2023/08/08 00:44:53;;;;;;;2.33;1.50;;;;;;;22.01;100.00;100161.00;5056403;28;20040;-74
2023/08/08 00:47:18;;;;;;;3.50;1.30;;;;;;;22.34;100.00;100177.50;5074157;28;20086;-76
2023/08/08 00:49:46;;;;;;;3.47;1.50;;;;;;;22.16;100.00;100162.50;5074313;28;20029;-76
2023/08/08 00:52:12;;;;;;;3.28;1.52;;;;;;;22.50;100.00;100216.13;5072179;28;20119;-74
2023/08/08 00:54:37;;;;;;;3.08;1.40;;;;;;;21.85;100.00;100150.91;5073556;28;20039;-76
2023/08/08 00:57:03;;;;;;;2.60;1.30;;;;;;;22.30;100.00;100219.31;5056197;28;20028;-76
2023/08/08 00:59:29;;;;;;;3.65;1.60;;;;;;;21.63;100.00;100145.56;5074044;28;20392;-76
2023/08/08 01:01:55;;;;;;;3.75;1.55;;;;;;;21.70;100.00;100169.28;5074081;28;20029;-74
2023/08/08 01:04:25;;;;;;;6.10;1.70;;;;;;;21.57;100.00;100162.38;5073249;28;20119;-73
2023/08/08 01:07:04;;;;;;;3.88;1.70;;;;;;;21.82;100.00;100200.34;5073272;28;20046;-75
2023/08/08 01:09:43;;;;;;;3.47;1.50;;;;;;;21.37;100.00;100167.31;5055261;28;20028;-73
2023/08/08 01:12:12;;;;;;;2.25;1.50;;;;;;;21.46;100.00;100208.88;5074424;28;20032;-75
2023/08/08 01:14:39;;;;;;;5.30;1.60;;;;;;;21.94;100.00;100260.78;5078823;28;20078;-76
2023/08/08 01:17:05;;;;;;;1.90;1.70;;;;;;;21.70;100.00;100267.63;5076056;28;20040;-75
2023/08/08 01:19:34;;;;;;;2.88;1.52;;;;;;;21.70;100.00;100252.94;5073240;28;20025;-76
2023/08/08 01:22:06;;;;;;;2.10;1.70;;;;;;;21.74;100.00;100272.50;5072970;28;20035;-76
2023/08/08 01:24:34;;;;;;;2.42;1.50;;;;;;;21.50;100.00;100222.44;5073657;28;20033;-76
2023/08/08 01:27:00;;;;;;;2.22;1.77;;;;;;;21.14;100.00;100199.91;5073140;28;20028;-75
2023/08/08 01:29:27;;;;;;;1.90;1.70;;;;;;;21.44;100.00;100243.56;5072694;28;20506;-76
2023/08/08 01:31:52;;;;;;;3.28;1.67;;;;;;;21.47;100.00;100238.19;5072246;28;20038;-74
2023/08/08 01:34:18;;;;;;;1.90;1.50;;;;;;;21.11;100.00;100166.50;5054427;28;20033;-74
2023/08/08 01:36:57;;;;;;;1.95;1.60;;;;;;;21.61;100.00;100222.50;5072961;28;20024;-75
2023/08/08 01:39:27;;;;;;;1.60;1.42;;;;;;;21.16;100.00;100194.63;5055324;28;20135;-74
2023/08/08 01:41:55;;;;;;;2.50;1.38;;;;;;;21.14;100.00;100186.97;5073003;28;20097;-73
2023/08/08 01:44:23;;;;;;;1.92;1.30;;;;;;;21.60;100.00;100241.56;5072537;28;20086;-74
2023/08/08 01:46:48;;;;;;;1.95;1.38;;;;;;;21.48;100.00;100219.13;5054225;28;20056;-73
2023/08/08 01:49:14;;;;;;;2.10;1.42;;;;;;;21.65;100.00;100247.25;5072362;28;20115;-74
2023/08/08 01:51:39;;;;;;;1.88;1.15;;;;;;;21.58;100.00;100235.66;5072183;28;20119;-73
2023/08/08 01:54:04;;;;;;;3.08;1.48;;;;;;;21.62;100.00;100206.06;5072518;28;20024;-74
2023/08/08 01:56:30;;;;;;;3.95;1.40;;;;;;;21.59;100.00;100227.78;5072233;28;20514;-73
2023/08/08 01:58:56;;;;;;;5.40;1.20;;;;;;;21.32;100.00;100175.38;5071781;28;20083;-74
2023/08/08 02:01:22;;;;;;;3.42;1.20;;;;;;;21.61;100.00;100225.09;5072036;28;20035;-72
2023/08/08 02:03:47;;;;;;;1.50;1.10;;;;;;;21.31;100.00;100154.78;5072089;28;20418;-75
2023/08/08 02:06:12;;;;;;;2.42;1.05;;;;;;;21.31;100.00;100154.78;5054673;28;20048;-75
2023/08/08 02:08:38;;;;;;;2.25;1.20;;;;;;;21.49;100.00;100150.94;5072283;28;20494;-73
2023/08/08 02:11:03;;;;;;;1.88;0.90;;;;;;;21.64;100.00;100201.59;5071965;28;20029;-76
2023/08/08 02:13:29;;;;;;;2.03;1.05;;;;;;;21.72;100.00;100186.38;5071958;28;20032;-74
2023/08/08 02:15:54;;;;;;;2.10;1.00;;;;;;;21.64;100.00;100170.53;5054011;28;20480;-73
2023/08/08 02:18:20;;;;;;;1.15;0.90;;;;;;;21.40;100.00;100151.56;5071639;28;20032;-76
2023/08/08 02:20:45;;;;;;;2.13;0.90;;;;;;;21.81;100.00;100195.28;5072751;28;20402;-76
2023/08/08 02:23:11;;;;;;;1.88;1.10;;;;;;;21.68;100.00;100191.84;5055107;28;20093;-77
2023/08/08 02:25:36;;;;;;;1.83;1.10;;;;;;;21.32;100.00;100107.28;5072434;28;20487;-76
2023/08/08 02:28:01;;;;;;;1.33;1.02;;;;;;;21.53;100.00;100153.16;5072640;28;20055;-76
2023/08/08 02:30:27;;;;;;;2.85;0.82;;;;;;;21.43;100.00;100128.88;5072230;28;20036;-74
2023/08/08 02:32:52;;;;;;;1.65;0.90;;;;;;;21.88;100.00;100202.50;5071741;28;20552;-75
2023/08/08 02:35:18;;;;;;;1.55;1.00;;;;;;;21.56;100.00;100155.56;5071145;28;20482;-75
2023/08/08 02:37:43;;;;;;;0.85;0.80;;;;;;;21.77;100.00;100204.97;5071408;28;20557;-76
2023/08/08 02:40:09;;;;;;;1.10;0.88;;;;;;;21.73;100.00;100194.97;5072241;28;20040;-76
2023/08/08 02:42:35;;;;;;;2.38;0.80;;;;;;;21.66;100.00;100191.13;5071378;28;20471;-79
2023/08/08 02:45:00;;;;;;;1.65;1.00;;;;;;;21.30;100.00;100164.31;5072518;28;20032;-78
2023/08/08 02:47:26;;;;;;;0.98;0.77;;;;;;;21.75;100.00;100206.84;5072099;28;20028;-80
2023/08/08 02:49:51;;;;;;;1.33;0.70;;;;;;;21.33;100.00;100153.72;5072628;28;20029;-78
2023/08/08 02:52:16;;;;;;;1.25;0.80;;;;;;;21.66;100.00;100201.47;5072502;28;20044;-78
2023/08/08 02:54:42;;;;;;;0.98;0.60;;;;;;;21.10;100.00;100164.00;5055386;28;20025;-77
2023/08/08 02:57:10;;;;;;;1.15;0.52;;;;;;;21.57;100.00;100236.59;5072167;28;20025;-76
2023/08/08 02:59:36;;;;;;;0.70;0.55;;;;;;;21.28;100.00;100211.91;5072609;28;20597;-77
2023/08/08 03:02:01;;;;;;;0.85;0.73;;;;;;;21.07;100.00;100187.50;5072296;28;20044;-76
2023/08/08 03:04:26;;;;;;;0.70;0.60;;;;;;;21.17;100.00;100201.47;5072457;28;20017;-75
2023/08/08 03:06:52;;;;;;;0.98;0.77;;;;;;;21.18;100.00;100213.44;5072476;28;20417;-76
2023/08/08 03:09:17;;;;;;;0.88;0.70;;;;;;;21.53;100.00;100228.22;5071457;28;20036;-76
2023/08/08 03:11:43;;;;;;;0.68;0.47;;;;;;;21.42;100.00;100222.13;5072155;28;20029;-77
2023/08/08 03:14:11;;;;;;;1.38;0.50;;;;;;;21.64;100.00;100271.50;5052863;28;20036;-77
2023/08/08 03:16:36;;;;;;;0.65;0.40;;;;;;;21.67;100.00;100281.63;5050845;28;20041;-76
2023/08/08 03:19:02;;;;;;;1.33;0.50;;;;;;;21.75;100.00;100265.56;5065656;28;20078;-73
2023/08/08 03:21:27;;;;;;;0.40;0.40;;;;;;;21.84;100.00;100263.19;5052675;28;20028;-76
2023/08/08 03:23:53;;;;;;;0.55;0.40;;;;;;;22.02;100.00;100255.91;5071565;28;20043;-77
2023/08/08 03:26:19;;;;;;;1.00;0.40;;;;;;;21.89;100.00;100239.59;5052808;28;20476;-76
2023/08/08 03:28:45;;;;;;;1.48;0.50;;;;;;;21.84;100.00;100213.19;5053430;28;20036;-75
2023/08/08 03:31:10;;;;;;;1.48;0.40;;;;;;;22.10;100.00;100232.88;5053347;28;20036;-75
2023/08/08 03:33:36;;;;;;;1.85;0.40;;;;;;;21.94;100.00;100165.81;5071263;28;20501;-76
2023/08/08 03:36:01;;;;;;;0.70;0.30;;;;;;;22.13;100.00;100197.22;5054072;28;20032;-77
2023/08/08 03:38:26;;;;;;;2.15;0.60;;;;;;;22.32;100.00;100194.94;5053248;28;20115;-75
2023/08/08 03:40:52;;;;;;;1.85;0.80;;;;;;;22.08;100.00;100149.28;5053194;28;20060;-73
2023/08/08 03:43:17;;;;;;;1.02;0.60;;;;;;;22.11;100.00;100131.75;5070641;28;20032;-75
2023/08/08 03:45:45;;;;;;;2.08;0.63;;;;;;;22.01;100.00;100120.41;5070606;28;20473;-73
2023/08/08 03:48:10;;;;;;;1.38;0.60;;;;;;;22.01;100.00;100122.97;5071069;28;20041;-75
2023/08/08 03:50:36;;;;;;;0.98;0.40;;;;;;;21.96;100.00;100132.88;5070991;28;20182;-73
2023/08/08 03:53:01;;;;;;;1.30;0.40;;;;;;;21.95;100.00;100126.00;5052858;28;20038;-74
2023/08/08 03:55:27;;;;;;;1.60;0.43;;;;;;;22.02;100.00;100122.06;5054791;28;20483;-76
2023/08/08 03:57:53;;;;;;;1.77;0.45;;;;;;;21.70;100.00;100145.97;5072991;28;20035;-76
2023/08/08 04:00:18;;;;;;;1.08;0.50;;;;;;;21.40;100.00;100133.44;5072459;28;20049;-77
2023/08/08 04:02:44;;;;;;;0.63;0.50;;;;;;;21.43;100.00;100134.03;5053829;28;20486;-74
2023/08/08 04:05:09;;;;;;;1.40;0.50;;;;;;;21.14;100.00;100062.00;5053687;28;20040;-74
2023/08/08 04:07:34;;;;;;;0.95;0.50;;;;;;;21.43;100.00;100120.31;5054138;28;20020;-74
2023/08/08 04:10:00;;;;;;;1.88;0.50;;;;;;;21.23;100.00;100088.06;5054190;28;20033;-73
2023/08/08 04:12:26;;;;;;;0.60;0.60;;;;;;;21.32;100.00;100102.09;5053892;28;20035;-73
2023/08/08 04:14:51;;;;;;;1.30;0.60;;;;;;;21.65;100.00;100169.59;5035952;28;20120;-74
2023/08/08 04:17:17;;;;;;;1.80;0.80;;;;;;;21.71;100.00;100168.34;5053873;28;20480;-75
2023/08/08 04:19:42;;;;;;;1.23;0.80;;;;;;;21.37;100.00;100175.06;5054035;28;20499;-75
2023/08/08 04:22:07;;;;;;;1.27;0.90;;;;;;;21.07;100.00;100177.16;5053694;28;20032;-74
2023/08/08 04:24:33;;;;;;;1.33;0.80;;;;;;;21.04;100.00;100133.38;5035930;28;20048;-74
2023/08/08 04:26:58;;;;;;;1.40;1.00;;;;;;;21.12;100.00;100194.00;5035692;28;20031;-73
2023/08/08 04:29:24;;;;;;;1.45;0.95;;;;;;;21.34;100.00;100221.81;5053882;28;20472;-74
2023/08/08 04:31:49;;;;;;;1.98;1.05;;;;;;;21.09;100.00;100176.13;5057291;28;20423;-75
2023/08/08 04:34:15;;;;;;;1.30;0.90;;;;;;;20.84;100.00;100150.22;5054674;28;20029;-75
2023/08/08 04:36:40;;;;;;;3.47;0.70;;;;;;;20.70;100.00;100191.66;5053454;28;20052;-77
2023/08/08 04:39:05;;;;;;;2.00;1.00;;;;;;;21.26;100.00;100266.31;5053626;28;20032;-75
2023/08/08 04:41:31;;;;;;;1.05;0.60;;;;;;;20.81;100.00;100256.44;5053442;28;20086;-75
2023/08/08 04:43:56;;;;;;;1.77;0.80;;;;;;;21.08;100.00;100298.59;5053392;28;20412;-75
2023/08/08 04:46:22;;;;;;;3.13;0.75;;;;;;;21.04;100.00;100316.97;5053644;28;20036;-74
2023/08/08 04:48:47;;;;;;;1.33;0.60;;;;;;;21.06;100.00;100359.91;5053372;28;20480;-75
2023/08/08 04:51:13;;;;;;;0.73;0.55;;;;;;;20.80;100.00;100355.56;5054891;28;20067;-74
2023/08/08 04:53:38;;;;;;;0.73;0.40;;;;;;;21.04;100.00;100404.91;5057128;28;20025;-73
2023/08/08 04:56:04;;;;;;;3.58;0.40;;;;;;;20.72;100.00;100379.31;5053093;28;20112;-74
2023/08/08 04:58:29;;;;;;;1.40;0.40;;;;;;;20.98;100.00;100449.22;5053208;28;20033;-72
2023/08/08 05:00:56;;;;;;;0.80;0.50;;;;;;;20.70;100.00;100425.09;5059299;28;20095;-74
2023/08/08 05:03:21;;;;;;;0.73;0.50;;;;;;;20.62;100.00;100497.09;5067261;28;20530;-73
2023/08/08 05:05:47;;;;;;;3.03;0.70;;;;;;;20.64;100.00;100554.69;5059690;28;20028;-76
2023/08/08 05:08:13;;;;;;;0.82;0.40;;;;;;;20.44;100.00;100518.09;5065446;28;20036;-74
2023/08/08 05:10:38;;;;;;;0.70;0.40;;;;;;;20.35;100.00;100547.88;5072179;28;20037;-74
2023/08/08 05:13:04;;;;;;;1.20;0.40;;;;;;;20.01;100.00;100553.28;5072284;28;20029;-72
2023/08/08 05:15:29;;;;;;;0.80;0.40;;;;;;;20.37;100.00;100659.69;5072362;28;20119;-74
2023/08/08 05:17:55;;;;;;;2.95;0.47;;;;;;;19.95;100.00;100628.50;5072111;28;20033;-73
2023/08/08 05:20:21;;;;;;;1.10;0.50;;;;;;;19.60;100.00;100612.41;5072537;28;20060;-75
2023/08/08 05:22:47;;;;;;;3.17;0.40;;;;;;;20.05;100.00;100748.44;5072574;28;20033;-74
2023/08/08 05:25:13;;;;;;;0.80;0.30;;;;;;;19.77;100.00;100743.09;5072197;28;20040;-75
2023/08/08 05:27:38;;;;;;;1.40;0.50;;;;;;;19.78;100.00;100695.72;5054236;28;20033;-74
2023/08/08 05:30:05;;;;;;;1.27;0.30;;;;;;;19.86;100.00;100831.22;5053938;28;20041;-73
2023/08/08 05:32:30;;;;;;;0.30;0.30;;;;;;;20.02;100.00;100931.94;5072412;28;20054;-76
2023/08/08 05:34:57;;;;;;;2.65;0.40;;;;;;;19.37;100.00;100877.66;5072625;28;20478;-71
2023/08/08 05:37:25;;;;;;;1.85;0.60;;;;;;;19.55;100.00;100942.06;5054608;28;20418;-74
2023/08/08 05:39:52;;;;;;;0.90;0.60;;;;;;;19.33;100.00;100940.63;5072453;28;20093;-74
2023/08/08 05:42:17;;;;;;;1.98;0.60;;;;;;;19.45;100.00;101012.25;5054090;28;20174;-72
2023/08/08 05:44:43;;;;;;;0.73;0.70;;;;;;;19.22;100.00;100999.56;5072037;28;20123;-74
2023/08/08 05:47:08;;;;;;;4.47;0.90;;;;;;;19.09;100.00;100977.84;5060965;28;20032;-73
2023/08/08 05:49:34;;;;;;;2.70;1.08;;;;;;;19.31;100.00;101018.03;5051615;28;20064;-73
2023/08/08 05:51:59;;;;;;;1.77;1.25;;;;;;;19.81;100.00;101087.88;5051557;28;20028;-70
2023/08/08 05:54:25;;;;;;;3.50;1.30;;;;;;;18.78;100.00;101010.19;5051338;28;20396;-71
2023/08/08 05:56:50;;;;;;;1.42;1.30;;;;;;;19.26;100.00;101045.75;5033449;28;20029;-74
2023/08/08 05:59:16;;;;;;;1.40;1.30;;;;;;;19.07;100.00;101038.94;5052348;28;20108;-75
2023/08/08 06:01:41;;;;;;;2.05;1.63;;;;;;;19.41;100.00;101112.13;5051754;28;20041;-75
2023/08/08 06:04:06;;;;;;;4.43;1.58;;;;;;;19.06;100.00;101074.22;5052073;28;20407;-75
2023/08/08 06:06:32;;;;;;;1.83;1.42;;;;;;;19.26;100.00;101133.44;5066247;28;20020;-73
2023/08/08 06:08:57;;;;;;;2.05;1.58;;;;;;;18.96;100.00;101140.81;5052474;28;20044;-73
2023/08/08 06:11:23;;;;;;;3.35;1.90;;;;;;;19.24;100.00;101212.63;5070073;28;20037;-74
2023/08/08 06:13:49;;;;;;;1.90;1.63;;;;;;;19.04;100.00;101149.03;5058113;28;20040;-75
2023/08/08 06:16:15;;;;;;;2.10;1.42;;;;;;;19.41;100.00;101193.88;5050847;28;20029;-74
2023/08/08 06:18:41;;;;;;;2.88;1.58;;;;;;;19.45;100.00;101231.53;5050802;28;20496;-74
2023/08/08 06:21:07;;;;;;;3.15;1.85;;;;;;;19.05;100.00;101178.25;5051656;28;20067;-74
2023/08/08 06:23:32;;;;;;;2.00;1.60;;;;;;;19.43;100.00;101248.81;5051829;28;20053;-73
2023/08/08 06:25:58;;;;;;;2.53;1.50;;;;;;;19.02;100.00;101153.44;5033486;28;20068;-73
2023/08/08 06:28:23;;;;;;;1.70;1.58;;;;;;;19.54;100.00;101259.50;5051670;28;20044;-74
2023/08/08 06:30:49;;;;;;;1.75;1.60;;;;;;;19.65;100.00;101286.50;5052082;28;20044;-77
2023/08/08 06:33:14;;;;;;;2.83;1.65;;;;;;;19.15;100.00;101248.31;5054218;28;20036;-76
2023/08/08 06:35:39;;;;;;;3.78;1.60;;;;;;;18.96;100.00;101218.16;5051698;28;20025;-76
2023/08/08 06:38:05;;;;;;;2.53;1.60;;;;;;;19.59;100.00;101337.56;5052184;28;20064;-75
2023/08/08 06:40:30;;;;;;;2.88;1.60;;;;;;;19.43;100.00;101298.66;5077075;28;20031;-74
2023/08/08 06:42:57;;;;;;;2.78;1.70;;;;;;;19.50;100.00;101307.81;5090353;28;20550;-73
2023/08/08 06:45:22;;;;;;;1.60;1.30;;;;;;;19.48;100.00;101313.94;5091272;28;20084;-74
2023/08/08 06:47:48;;;;;;;3.00;1.27;;;;;;;19.03;100.00;101255.63;5090085;28;20460;-77
2023/08/08 06:50:14;;;;;;;2.58;1.60;;;;;;;19.39;100.00;101324.66;5091175;28;20525;-78
2023/08/08 06:52:39;;;;;;;2.83;1.52;;;;;;;19.52;100.00;101325.81;5071222;28;20173;-76
2023/08/08 06:55:05;;;;;;;2.80;1.83;;;;;;;19.27;100.00;101282.16;5091033;28;20035;-75
2023/08/08 06:57:33;;;;;;;2.75;1.80;;;;;;;19.19;100.00;101289.38;5090956;28;20050;-77
2023/08/08 06:59:58;;;;;;;1.83;1.33;;;;;;;19.51;100.00;101319.81;5071648;28;20559;-76
2023/08/08 07:02:24;;;;;;;1.52;1.42;;;;;;;19.13;100.00;101219.16;5073179;28;20036;-77
2023/08/08 07:04:49;;;;;;;3.28;2.05;;;;;;;19.65;100.00;101301.13;5091200;28;20438;-77
2023/08/08 07:07:15;;;;;;;2.67;2.10;;;;;;;19.45;100.00;101285.72;5090876;28;20024;-77
2023/08/08 07:09:41;;;;;;;2.10;1.60;;;;;;;19.10;100.00;101245.06;5072065;28;20038;-77
2023/08/08 07:12:07;;;;;;;1.80;1.58;;;;;;;18.43;100.00;101180.91;5090966;28;20036;-77
2023/08/08 07:14:33;;;;;;;1.67;1.45;;;;;;;18.98;100.00;101306.56;5091602;28;20036;-76
2023/08/08 07:16:58;;;;;;;1.85;1.50;;;;;;;19.06;100.00;101342.34;5092088;28;20460;-76
2023/08/08 07:19:24;;;;;;;1.73;1.42;;;;;;;19.10;100.00;101355.94;5091631;28;20101;-77
2023/08/08 07:21:50;;;;;;;2.65;1.70;;;;;;;18.62;100.00;101309.81;5092111;28;20032;-78
2023/08/08 07:24:16;;;;;;;2.15;1.70;;;;;;;18.71;100.00;101324.88;5092399;28;20024;-76
2023/08/08 07:26:41;;;;;;;2.75;1.77;;;;;;;18.20;100.00;101265.94;5091809;28;20028;-77
2023/08/08 07:29:07;;;;;;;3.15;1.80;;;;;;;18.30;100.00;101334.22;5075532;28;20036;-75
2023/08/08 07:31:32;;;;;;;2.25;1.75;;;;;;;17.84;100.00;101570.97;5096067;28;20042;-76
2023/08/08 07:33:58;;;;;;;2.25;1.77;;;;;;;18.27;100.00;101691.41;5096205;28;20375;-75
2023/08/08 07:36:24;;;;;;;3.55;2.70;;;;;;;18.35;100.00;102133.31;5077914;28;20063;-76
2023/08/08 07:38:49;;;;;;;3.85;2.50;;;;;;;17.93;100.00;102191.84;5077456;28;20032;-76
2023/08/08 07:41:15;;;;;;;4.60;2.20;;;;;;;17.86;100.00;102258.94;5095731;28;20107;-76
2023/08/08 07:43:40;;;;;;;2.55;2.03;;;;;;;17.93;100.00;102377.19;5081355;28;20123;-77
2023/08/08 07:46:06;;;;;;;2.33;2.10;;;;;;;18.24;100.00;102466.72;5075968;28;20479;-73
2023/08/08 07:48:31;;;;;;;2.75;2.55;;;;;;;17.58;100.00;102407.03;5062770;28;20044;-78
2023/08/08 07:50:57;;;;;;;5.80;2.67;;;;;;;17.91;100.00;102569.44;5061757;28;20028;-76
2023/08/08 07:53:22;;;;;;;6.20;2.83;;;;;;;18.09;100.00;102684.16;5075145;28;20040;-76
2023/08/08 07:55:47;;;;;;;2.22;1.98;;;;;;;17.82;100.00;102729.22;5074957;28;20337;-77
2023/08/08 07:58:14;;;;;;;2.65;2.05;;;;;;;17.78;100.00;102721.53;5057101;28;20094;-77
2023/08/08 08:00:39;;;;;;;2.13;1.92;;;;;;;18.25;100.00;102917.47;5075249;28;20564;-77
2023/08/08 08:03:04;;;;;;;3.88;2.10;;;;;;;17.88;100.00;102936.78;5057241;28;20024;-77
2023/08/08 08:05:30;;;;;;;2.95;1.90;;;;;;;17.77;100.00;102862.25;5074954;28;20082;-77
2023/08/08 08:07:55;;;;;;;3.25;1.92;;;;;;;18.07;100.00;102730.56;5057493;28;20402;-78
2023/08/08 08:10:21;;;;;;;2.30;1.75;;;;;;;18.28;100.00;102762.88;5075021;28;20116;-77
2023/08/08 08:12:46;;;;;;;2.22;1.90;;;;;;;17.94;100.00;102694.72;5075524;28;20145;-78
2023/08/08 08:15:13;;;;;;;4.60;1.88;;;;;;;17.63;100.00;102641.97;5075258;28;20085;-77
2023/08/08 08:17:38;;;;;;;1.95;1.75;;;;;;;17.93;100.00;102614.03;5075078;28;20025;-75
2023/08/08 08:20:08;;;;;;;3.45;2.38;;;;;;;17.87;100.00;102600.41;5075198;28;20039;-76
2023/08/08 08:22:34;;;;;;;2.65;1.95;;;;;;;17.40;100.00;102427.88;5074699;28;20021;-76
2023/08/08 08:25:00;;;;;;;3.83;2.40;;;;;;;18.00;100.00;102504.09;5074690;28;20020;-76
2023/08/08 08:27:25;;;;;;;2.63;2.10;;;;;;;17.49;100.00;102320.56;5074392;28;20490;-74
2023/08/08 08:29:50;;;;;;;3.00;1.90;;;;;;;17.58;100.00;102142.03;5056514;28;20025;-75
2023/08/08 08:32:16;;;;;;;2.42;1.90;;;;;;;17.87;100.00;102075.28;5074432;28;20111;-76
2023/08/08 08:34:41;;;;;;;2.83;1.80;;;;;;;17.76;100.00;101799.38;5073754;28;20032;-79
2023/08/08 08:37:07;;;;;;;2.03;1.63;;;;;;;18.18;100.00;101613.56;5074269;28;20029;-76
2023/08/08 08:39:32;;;;;;;4.03;2.13;;;;;;;18.14;100.00;101269.56;5074155;28;20028;-74
2023/08/08 08:42:04;;;;;;;1.55;1.38;;;;;;;18.18;100.00;101177.63;5072869;28;20021;-76
2023/08/08 08:44:34;;;;;;;1.85;1.63;;;;;;;17.86;100.00;101051.94;5056180;28;20450;-75
2023/08/08 08:47:03;;;;;;;3.10;2.05;;;;;;;18.81;100.00;101056.44;5073858;28;20051;-76
2023/08/08 08:49:33;;;;;;;2.58;2.22;;;;;;;18.84;100.00;101009.06;5055797;28;20039;-74
2023/08/08 08:52:04;;;;;;;2.38;2.00;;;;;;;18.85;100.00;100966.94;5073722;28;20479;-77
2023/08/08 08:54:30;;;;;;;2.40;1.75;;;;;;;19.02;100.00;100895.63;5073757;28;20043;-75
2023/08/08 08:56:57;;;;;;;2.28;1.55;;;;;;;19.41;100.00;100951.41;5073621;28;20032;-74
2023/08/08 08:59:22;;;;;;;2.25;1.65;;;;;;;18.70;100.00;100914.34;5072931;28;20523;-75
2023/08/08 09:01:49;;;;;;;2.28;1.77;;;;;;;19.34;100.00;100956.00;5073113;28;20036;-73
2023/08/08 09:04:18;;;;;;;2.30;1.30;;;;;;;19.86;100.00;100975.78;5072803;28;20490;-76
2023/08/08 09:06:43;;;;;;;2.42;1.55;;;;;;;19.81;100.00;100995.78;5073304;28;20032;-75
2023/08/08 09:09:09;;;;;;;1.77;1.25;;;;;;;19.59;100.00;101033.06;5072452;28;20040;-74
2023/08/08 09:11:35;;;;;;;1.45;1.13;;;;;;;19.66;100.00;101079.16;5073242;28;20120;-74
2023/08/08 09:14:02;;;;;;;1.17;0.80;;;;;;;20.72;100.00;101361.59;5072720;28;20111;-75
2023/08/08 09:16:27;;;;;;;1.42;0.90;;;;;;;20.07;100.00;102016.38;5073245;28;20024;-74
2023/08/08 09:18:53;;;;;;;0.82;0.50;;;;;;;20.68;100.00;102921.84;5073019;28;20032;-74
2023/08/08 09:21:18;;;;;;;1.73;0.63;;;;;;;20.83;100.00;103398.41;5072584;28;20406;-76
2023/08/08 09:23:44;;;;;;;1.35;0.80;;;;;;;20.53;100.00;103462.66;5073258;28;20040;-74
2023/08/08 09:26:10;;;;;;;0.60;0.60;;;;;;;19.99;100.00;103277.25;5073237;28;20052;-76
2023/08/08 09:28:35;;;;;;;0.63;0.60;;;;;;;20.68;100.00;103121.00;5073576;28;20055;-76
2023/08/08 09:31:01;;;;;;;1.13;0.60;;;;;;;21.19;100.00;102859.44;5073081;28;20025;-75
2023/08/08 09:33:30;;;;;;;1.58;0.70;;;;;;;20.80;100.00;102553.41;5072747;28;20107;-75
2023/08/08 09:35:55;;;;;;;0.73;0.50;;;;;;;21.10;100.00;102251.53;5072670;28;20032;-76
2023/08/08 09:38:21;;;;;;;0.85;0.60;;;;;;;20.77;100.00;101788.03;5072534;28;20036;-76
2023/08/08 09:40:46;;;;;;;1.55;0.50;;;;;;;21.06;100.00;101799.78;5072557;28;20028;-75
2023/08/08 09:43:12;;;;;;;1.08;0.60;;;;;;;20.93;100.00;101633.06;5072789;28;20487;-75
2023/08/08 09:45:38;;;;;;;0.95;0.70;;;;;;;21.19;100.00;101868.22;5072799;28;20024;-75
2023/08/08 09:48:06;;;;;;;1.63;0.60;;;;;;;21.12;100.00;101839.19;5072656;28;20068;-75
2023/08/08 09:50:34;;;;;;;0.80;0.57;;;;;;;21.20;100.00;101859.56;5072253;28;20120;-76
2023/08/08 09:53:01;;;;;;;0.60;0.40;;;;;;;21.19;100.00;101855.28;5072454;28;20116;-74
2023/08/08 09:55:28;;;;;;;0.98;0.70;;;;;;;20.83;100.00;101771.41;5072737;28;20024;-75
2023/08/08 09:57:54;;;;;;;0.63;0.52;;;;;;;21.10;100.00;101739.22;5054893;28;20032;-76
2023/08/08 10:00:20;;;;;;;1.63;0.70;;;;;;;21.48;100.00;101725.44;5072258;28;20060;-74
2023/08/08 10:02:46;;;;;;;2.13;0.70;;;;;;;21.02;100.00;101591.28;5072424;28;20483;-77
2023/08/08 10:05:14;;;;;;;3.00;0.70;;;;;;;21.17;100.00;101533.69;5054439;28;20032;-76
2023/08/08 10:07:40;;;;;;;1.23;0.88;;;;;;;20.90;100.00;101498.72;5072808;28;20071;-75
2023/08/08 10:10:10;;;;;;;0.77;0.60;;;;;;;21.61;100.00;101508.25;5071962;28;20043;-76
2023/08/08 10:12:39;;;;;;;1.25;0.63;;;;;;;21.39;100.00;101426.44;5072088;28;20036;-76
2023/08/08 10:15:09;;;;;;;2.25;0.50;;;;;;;21.18;100.00;101362.00;5071982;28;20040;-76
2023/08/08 10:17:38;;;;;;;0.80;0.50;;;;;;;21.47;100.00;101362.19;5072070;28;20547;-74
2023/08/08 10:20:12;;;;;;;1.88;0.90;;;;;;;21.91;100.00;101250.31;5072022;28;20103;-76
2023/08/08 10:22:46;;;;;;;2.33;1.17;;;;;;;21.58;100.00;101195.97;5072041;28;20028;-76
2023/08/08 10:25:43;;;;;;;4.32;1.60;;;;;;;22.34;100.00;101214.16;5071843;28;20079;-74
2023/08/08 10:28:11;;;;;;;2.40;1.02;;;;;;;21.95;100.00;101110.19;5069531;28;20052;-74
2023/08/08 10:30:48;;;;;;;2.30;0.80;;;;;;;21.72;100.00;101034.69;5072067;28;20032;-75
2023/08/08 10:33:18;;;;;;;1.58;0.70;;;;;;;22.23;100.00;101071.41;5071969;28;20089;-75
2023/08/08 10:35:54;;;;;;;1.27;0.70;;;;;;;22.38;100.00;100972.00;5072212;28;20103;-75
2023/08/08 10:38:21;;;;;;;6.00;0.95;;;;;;;22.29;100.00;100964.78;5071956;28;20531;-73
2023/08/08 10:40:47;;;;;;;0.93;0.60;;;;;;;21.76;100.00;100881.66;5053283;28;20033;-75
2023/08/08 10:43:15;;;;;;;1.58;0.50;;;;;;;22.32;100.00;100962.00;5071494;28;20119;-76
2023/08/08 10:45:43;;;;;;;1.80;0.50;;;;;;;22.32;100.00;100949.03;5071203;28;20036;-74
2023/08/08 10:48:09;;;;;;;1.58;0.40;;;;;;;23.21;100.00;100917.44;5071342;28;20170;-74
2023/08/08 10:50:40;;;;;;;0.93;0.50;;;;;;;23.57;100.00;100927.19;5053592;28;20040;-74
2023/08/08 10:53:09;;;;;;;5.28;1.30;;;;;;;24.13;100.00;100858.41;5071166;28;20035;-75
2023/08/08 10:55:36;;;;;;;0.70;0.52;;;;;;;23.48;100.00;100740.88;5054163;28;20070;-76
2023/08/08 10:58:09;;;;;;;1.55;0.73;;;;;;;24.63;100.00;100772.44;5054400;28;20040;-74
2023/08/08 11:00:39;;;;;;;1.15;0.65;;;;;;;25.06;100.00;100754.47;5072399;28;20049;-76
2023/08/08 11:03:05;;;;;;;0.50;0.40;;;;;;;24.98;100.00;100673.53;5053209;28;20033;-75
2023/08/08 11:05:31;;;;;;;0.70;0.40;;;;;;;24.82;100.00;100712.06;5074074;28;20031;-75
2023/08/08 11:07:58;;;;;;;1.17;0.40;;;;;;;25.73;100.00;100651.13;5074678;28;20024;-75
2023/08/08 11:10:30;;;;;;;0.50;0.38;;;;;;;25.29;100.00;100612.94;5053191;28;20039;-73
2023/08/08 11:13:04;;;;;;;4.13;1.17;;;;;;;25.35;100.00;100628.09;5070876;28;20078;-74